Terminal Aerodrome Forecast
Issued by NWS

Home | Current Version | Previous Version | Text Only | Print | Product List | Glossary On
Versions: 1 2 3 4 5 6 7 8 9 10 11 12 13 14 15 16 17 18 19 20
000
FTUS43 KSGF 272300
TAFJLN
TAF
KJLN 272335Z 2800/2824 VRB03KT P6SM SKC
     FM280400 14008KT P6SM SKC
     FM280600 16010G18KT P6SM SKC WS016/23040KT
     FM281600 18016G24KT P6SM SKC WS016/23040KT=

USA.gov is the U.S. government's official web portal to all federal, state and local government web resources and services.